Time;durP1;ratioP1;P1;durP2;ratioP2;P2;SDS_P1;SDS_P2;PMS_P1;PMS_P2;Temp;Humidity;BMP_temperature;BMP_pressure;BME280_temperature;BME280_humidity;BME280_pressure;Samples;Min_cycle;Max_cycle;Signal;HPM_P1;HPM_P2
2022/12/07 00:01:40;;;;;;;17.52;12.52;;;9.10;65.20;;;;;;5072274;28;20445;-75
2022/12/07 00:04:08;;;;;;;15.52;10.73;;;9.10;65.20;;;;;;5054758;28;20472;-75
2022/12/07 00:06:40;;;;;;;23.48;13.32;;;9.10;65.30;;;;;;5054621;28;20035;-75
2022/12/07 00:09:09;;;;;;;18.63;13.43;;;9.10;65.30;;;;;;5071939;28;20414;-75
2022/12/07 00:11:41;;;;;;;18.92;12.68;;;9.10;65.30;;;;;;5054293;28;20032;-76
2022/12/07 00:14:16;;;;;;;18.63;12.27;;;9.10;65.50;;;;;;5054313;28;20032;-75
2022/12/07 00:16:45;;;;;;;17.63;11.95;;;9.10;65.40;;;;;;5054802;28;20036;-75
2022/12/07 00:19:20;;;;;;;17.83;12.32;;;9.10;65.30;;;;;;5072500;28;20089;-76
2022/12/07 00:21:52;;;;;;;21.40;12.20;;;9.10;65.30;;;;;;5071581;28;20038;-74
2022/12/07 00:24:18;;;;;;;16.83;11.40;;;9.10;65.30;;;;;;5071944;28;20472;-70
2022/12/07 00:26:44;;;;;;;17.02;11.57;;;9.10;65.50;;;;;;5072591;28;20035;-76
2022/12/07 00:29:18;;;;;;;16.75;11.23;;;9.10;65.50;;;;;;5054596;28;20056;-75
2022/12/07 00:31:47;;;;;;;17.50;11.10;;;9.10;65.60;;;;;;5054325;28;20472;-71
2022/12/07 00:34:18;;;;;;;16.10;10.40;;;9.10;65.60;;;;;;5073554;28;21056;-72
2022/12/07 00:36:48;;;;;;;16.25;10.27;;;9.10;65.60;;;;;;5068392;28;20497;-72
2022/12/07 00:39:16;;;;;;;15.30;10.43;;;9.10;65.60;;;;;;5070104;28;20040;-72
2022/12/07 00:41:46;;;;;;;17.75;11.35;;;9.10;65.70;;;;;;5054227;28;20098;-72
2022/12/07 00:44:12;;;;;;;16.15;10.85;;;9.10;65.60;;;;;;5071701;28;20480;-73
2022/12/07 00:46:41;;;;;;;15.68;9.55;;;9.10;65.60;;;;;;5071697;28;20033;-73
2022/12/07 00:49:10;;;;;;;17.98;11.50;;;9.10;65.60;;;;;;5054066;28;20035;-70
2022/12/07 00:51:36;;;;;;;14.30;10.05;;;9.10;65.60;;;;;;5072194;28;20029;-74
2022/12/07 00:54:07;;;;;;;20.95;12.35;;;9.20;65.60;;;;;;5072128;28;20036;-74
2022/12/07 00:56:38;;;;;;;16.63;11.25;;;9.10;65.40;;;;;;5071953;28;20039;-73
2022/12/07 00:59:04;;;;;;;18.33;11.18;;;9.10;65.50;;;;;;5053762;28;20032;-73
2022/12/07 01:01:34;;;;;;;17.38;11.55;;;9.10;65.50;;;;;;5071734;28;20094;-73
2022/12/07 01:04:01;;;;;;;16.05;10.82;;;9.10;65.50;;;;;;5071428;28;20032;-74
2022/12/07 01:06:27;;;;;;;17.90;11.10;;;9.10;65.50;;;;;;5054147;28;20150;-70
2022/12/07 01:08:56;;;;;;;16.27;10.48;;;9.10;65.50;;;;;;5071377;28;20045;-70
2022/12/07 01:11:25;;;;;;;13.77;9.60;;;9.10;65.50;;;;;;5072549;28;20040;-70
2022/12/07 01:13:54;;;;;;;14.38;10.00;;;9.10;65.50;;;;;;5075667;28;20032;-71
2022/12/07 01:16:21;;;;;;;17.00;10.40;;;9.10;65.50;;;;;;5057229;28;20028;-71
2022/12/07 01:18:50;;;;;;;16.45;9.75;;;9.20;65.50;;;;;;5075508;28;20028;-70
2022/12/07 01:21:24;;;;;;;14.98;9.10;;;9.10;65.50;;;;;;5075575;28;20020;-70
2022/12/07 01:23:53;;;;;;;14.65;8.85;;;9.10;65.40;;;;;;5057504;28;20063;-70
2022/12/07 01:26:23;;;;;;;18.02;11.05;;;9.20;65.50;;;;;;5075655;28;20028;-70
2022/12/07 01:28:54;;;;;;;15.48;10.32;;;9.20;65.40;;;;;;5057752;28;20025;-70
2022/12/07 01:31:23;;;;;;;16.60;9.77;;;9.20;65.30;;;;;;5074455;28;20036;-70
2022/12/07 01:33:55;;;;;;;19.52;10.98;;;9.20;65.30;;;;;;5075235;28;20121;-70
2022/12/07 01:36:27;;;;;;;13.43;9.82;;;9.20;65.30;;;;;;5043473;28;20029;-71
2022/12/07 01:39:01;;;;;;;13.43;9.15;;;9.10;65.20;;;;;;5037007;28;20511;-70
2022/12/07 01:41:29;;;;;;;12.63;8.40;;;9.20;65.30;;;;;;5054900;28;20036;-70
2022/12/07 01:44:25;;;;;;;11.60;8.55;;;9.20;66.10;;;;;;5054837;28;20033;-70
2022/12/07 01:46:59;;;;;;;15.98;8.82;;;9.20;65.30;;;;;;5056396;28;20403;-70
2022/12/07 01:49:45;;;;;;;14.75;9.55;;;9.20;65.30;;;;;;5072175;28;20029;-71
2022/12/07 01:52:31;;;;;;;12.43;8.60;;;9.20;65.30;;;;;;5057369;28;20035;-70
2022/12/07 01:55:03;;;;;;;11.88;8.00;;;9.20;65.30;;;;;;5057294;28;20031;-70
2022/12/07 01:57:34;;;;;;;14.98;9.45;;;9.20;65.30;;;;;;5057241;28;20032;-70
2022/12/07 02:00:00;;;;;;;16.05;9.75;;;9.20;65.30;;;;;;5075090;28;20052;-70
2022/12/07 02:02:32;;;;;;;12.57;8.43;;;9.20;65.20;;;;;;5055859;28;20059;-70
2022/12/07 02:05:00;;;;;;;14.25;9.40;;;9.20;65.20;;;;;;5073890;28;20035;-70
2022/12/07 02:07:30;;;;;;;13.18;9.07;;;9.10;65.10;;;;;;5056827;28;20029;-70
2022/12/07 02:10:19;;;;;;;12.77;8.65;;;9.10;65.20;;;;;;5056844;28;20031;-70
2022/12/07 02:13:08;;;;;;;13.07;9.00;;;9.10;65.10;;;;;;5068160;28;20029;-70
2022/12/07 02:16:01;;;;;;;14.52;9.30;;;9.10;65.10;;;;;;5054489;28;20029;-70
2022/12/07 02:19:02;;;;;;;12.90;8.25;;;9.10;65.00;;;;;;5054456;28;20029;-70
2022/12/07 02:21:58;;;;;;;12.82;7.90;;;9.10;64.90;;;;;;5055047;28;20021;-70
2022/12/07 02:24:51;;;;;;;13.63;8.98;;;9.10;64.90;;;;;;5074527;28;20035;-70
2022/12/07 02:27:35;;;;;;;15.40;9.68;;;9.10;64.90;;;;;;5074469;28;20375;-70
2022/12/07 02:30:34;;;;;;;12.55;8.73;;;9.10;64.90;;;;;;5074176;28;20032;-70
2022/12/07 02:33:14;;;;;;;12.85;8.40;;;9.10;64.90;;;;;;5071430;28;20532;-70
2022/12/07 02:35:55;;;;;;;12.35;8.30;;;9.00;64.90;;;;;;5056387;28;20029;-70
2022/12/07 02:38:35;;;;;;;10.73;7.93;;;9.00;65.00;;;;;;5074354;28;20051;-70
2022/12/07 02:41:24;;;;;;;16.15;8.27;;;9.00;65.00;;;;;;5074536;28;20024;-70
2022/12/07 02:44:00;;;;;;;11.75;7.75;;;9.00;65.00;;;;;;5056216;28;20077;-70
2022/12/07 02:46:33;;;;;;;13.20;8.40;;;9.00;65.00;;;;;;5056145;28;20036;-70
2022/12/07 02:49:05;;;;;;;13.80;8.43;;;9.00;65.00;;;;;;5074408;28;20028;-70
2022/12/07 02:51:34;;;;;;;11.98;7.75;;;9.00;65.00;;;;;;5055962;28;20028;-70
2022/12/07 02:54:02;;;;;;;15.63;8.55;;;9.00;65.00;;;;;;5056052;28;20028;-70
2022/12/07 02:56:45;;;;;;;14.93;8.70;;;9.00;65.00;;;;;;5073587;28;20032;-70
2022/12/07 02:59:21;;;;;;;12.00;8.50;;;8.90;65.00;;;;;;5074124;28;20109;-70
2022/12/07 03:02:14;;;;;;;10.82;7.85;;;8.90;65.00;;;;;;5073611;28;20051;-70
2022/12/07 03:05:14;;;;;;;14.30;8.82;;;8.90;65.00;;;;;;5073616;28;20024;-70
2022/12/07 03:08:01;;;;;;;13.80;8.82;;;8.90;65.10;;;;;;5055884;28;20033;-70
2022/12/07 03:10:55;;;;;;;12.18;7.63;;;8.90;65.10;;;;;;5055898;28;20055;-70
2022/12/07 03:13:35;;;;;;;14.02;7.88;;;8.90;65.10;;;;;;5074099;28;20044;-70
2022/12/07 03:16:08;;;;;;;13.52;8.27;;;8.90;65.10;;;;;;5073760;28;20491;-70
2022/12/07 03:18:46;;;;;;;10.40;7.03;;;8.90;65.20;;;;;;5073704;28;20368;-70
2022/12/07 03:21:17;;;;;;;11.50;7.65;;;8.90;65.20;;;;;;5073468;28;20029;-70
2022/12/07 03:23:51;;;;;;;9.40;6.68;;;8.90;65.30;;;;;;5055541;28;20024;-70
2022/12/07 03:26:28;;;;;;;12.68;7.38;;;8.90;65.30;;;;;;5073401;28;20346;-70
2022/12/07 03:29:01;;;;;;;11.80;7.60;;;8.90;65.30;;;;;;5073401;28;20032;-70
2022/12/07 03:31:33;;;;;;;11.35;7.03;;;8.90;65.30;;;;;;5051739;28;20035;-70
2022/12/07 03:34:19;;;;;;;13.38;7.18;;;8.90;65.20;;;;;;5071388;28;20048;-70
2022/12/07 03:36:56;;;;;;;10.55;6.65;;;8.90;65.10;;;;;;5057810;28;20025;-70
2022/12/07 03:39:57;;;;;;;13.35;6.55;;;8.90;65.00;;;;;;5053287;28;20167;-70
2022/12/07 03:42:23;;;;;;;9.35;6.65;;;8.90;65.10;;;;;;5053216;28;20035;-70
2022/12/07 03:44:58;;;;;;;9.23;6.20;;;8.90;65.10;;;;;;5053115;28;20021;-70
2022/12/07 03:47:37;;;;;;;9.50;6.25;;;8.90;65.10;;;;;;5052801;28;20078;-70
2022/12/07 03:50:09;;;;;;;8.23;6.25;;;8.90;65.10;;;;;;5035391;28;20194;-70
2022/12/07 03:52:52;;;;;;;8.80;6.05;;;8.90;65.20;;;;;;5052767;28;20021;-70
2022/12/07 03:55:29;;;;;;;11.75;8.02;;;9.00;65.20;;;;;;5052866;28;20024;-70
2022/12/07 03:58:03;;;;;;;8.90;6.10;;;9.00;65.20;;;;;;5053088;28;20086;-70
2022/12/07 04:00:32;;;;;;;7.93;5.32;;;8.90;65.10;;;;;;5052431;28;20060;-70
2022/12/07 04:03:01;;;;;;;11.02;5.65;;;8.90;65.10;;;;;;5052896;28;20025;-70
2022/12/07 04:05:29;;;;;;;7.97;5.90;;;9.00;65.10;;;;;;5052812;28;20159;-70
2022/12/07 04:08:02;;;;;;;8.70;5.90;;;9.00;65.10;;;;;;5052884;28;20037;-70
2022/12/07 04:10:34;;;;;;;17.00;6.30;;;9.00;65.00;;;;;;5052853;28;20052;-70
2022/12/07 04:13:02;;;;;;;9.57;5.95;;;9.00;65.00;;;;;;5052855;28;20167;-70
2022/12/07 04:15:32;;;;;;;9.27;5.82;;;9.00;64.90;;;;;;5052793;28;20369;-70
2022/12/07 04:18:01;;;;;;;14.50;7.35;;;9.00;64.70;;;;;;5035242;28;20108;-70
2022/12/07 04:20:29;;;;;;;9.25;6.05;;;9.00;64.70;;;;;;5068065;28;20054;-70
2022/12/07 04:22:58;;;;;;;13.00;6.40;;;9.00;64.80;;;;;;5072719;28;20079;-70
2022/12/07 04:25:31;;;;;;;8.15;5.60;;;9.00;64.70;;;;;;5072266;28;20035;-70
2022/12/07 04:27:59;;;;;;;10.38;6.32;;;9.00;64.40;;;;;;5072519;28;20036;-70
2022/12/07 04:30:31;;;;;;;10.02;6.25;;;9.00;64.40;;;;;;5054613;28;20082;-70
2022/12/07 04:32:59;;;;;;;7.00;5.15;;;8.90;64.30;;;;;;5069067;28;20047;-70
2022/12/07 04:35:25;;;;;;;7.20;5.25;;;8.90;64.40;;;;;;5072024;28;20040;-70
2022/12/07 04:37:51;;;;;;;7.75;4.95;;;8.90;64.60;;;;;;5072327;28;20021;-70
2022/12/07 04:40:19;;;;;;;8.48;5.60;;;8.90;64.60;;;;;;5054548;28;20031;-70
2022/12/07 04:42:47;;;;;;;7.85;5.32;;;8.90;64.60;;;;;;5072554;28;20110;-69
2022/12/07 04:45:15;;;;;;;7.32;5.07;;;8.90;64.70;;;;;;5073135;28;20487;-70
2022/12/07 04:47:44;;;;;;;7.43;5.18;;;8.90;64.60;;;;;;5076274;28;20024;-70
2022/12/07 04:50:15;;;;;;;6.90;4.45;;;8.90;64.60;;;;;;5076025;28;20119;-70
2022/12/07 04:52:44;;;;;;;6.57;4.60;;;8.80;64.50;;;;;;5076225;28;20020;-70
2022/12/07 04:55:10;;;;;;;6.53;5.15;;;8.80;64.50;;;;;;5058273;28;20032;-70
2022/12/07 04:57:39;;;;;;;6.63;4.75;;;8.80;64.80;;;;;;5058043;28;20024;-70
2022/12/07 05:00:05;;;;;;;5.03;4.05;;;8.80;64.40;;;;;;5075821;28;20044;-70
2022/12/07 05:02:34;;;;;;;5.70;4.18;;;8.80;64.50;;;;;;5075833;28;20028;-70
2022/12/07 05:05:00;;;;;;;6.20;4.88;;;8.80;64.50;;;;;;5057117;28;20485;-70
2022/12/07 05:07:25;;;;;;;7.75;5.20;;;8.80;64.60;;;;;;5075692;28;20032;-70
2022/12/07 05:09:54;;;;;;;7.00;4.68;;;8.80;64.50;;;;;;5057427;28;20032;-70
2022/12/07 05:12:25;;;;;;;5.45;4.47;;;8.80;64.40;;;;;;5076086;28;20037;-70
2022/12/07 05:14:53;;;;;;;6.40;4.72;;;8.80;64.40;;;;;;5075916;28;20033;-70
2022/12/07 05:17:21;;;;;;;10.38;4.55;;;8.80;64.40;;;;;;5075404;28;20074;-70
2022/12/07 05:19:53;;;;;;;6.18;4.45;;;8.70;64.30;;;;;;5057545;28;20056;-70
2022/12/07 05:22:21;;;;;;;8.32;5.18;;;8.70;64.40;;;;;;5055791;28;20111;-70
2022/12/07 05:24:47;;;;;;;8.18;4.90;;;8.70;64.60;;;;;;5055660;28;20025;-70
2022/12/07 05:27:12;;;;;;;7.28;4.72;;;8.70;64.50;;;;;;5055647;28;20078;-70
2022/12/07 05:29:38;;;;;;;5.25;4.20;;;8.70;64.50;;;;;;5037627;28;20105;-70
2022/12/07 05:32:04;;;;;;;7.43;4.95;;;8.70;64.50;;;;;;5056893;28;20038;-70
2022/12/07 05:34:30;;;;;;;7.88;4.90;;;8.70;64.30;;;;;;5070192;28;20035;-71
2022/12/07 05:36:56;;;;;;;9.75;6.32;;;8.70;64.30;;;;;;5075474;28;20032;-70
2022/12/07 05:39:22;;;;;;;8.57;6.32;;;8.70;64.40;;;;;;5075177;28;20032;-70
2022/12/07 05:44:31;;;;;;;6.80;4.50;;;8.60;64.30;;;;;;5074527;28;20070;-70
2022/12/07 05:46:57;;;;;;;7.88;5.47;;;8.60;64.40;;;;;;5075148;28;20041;-70
2022/12/07 05:49:25;;;;;;;6.80;5.45;;;8.60;64.30;;;;;;5075581;28;20032;-70
2022/12/07 05:51:54;;;;;;;7.22;5.60;;;8.60;64.30;;;;;;5057242;28;20063;-70
2022/12/07 05:54:22;;;;;;;8.27;5.50;;;8.60;64.30;;;;;;5075150;28;20408;-70
2022/12/07 05:56:50;;;;;;;7.07;5.50;;;8.60;64.20;;;;;;5074768;28;20032;-70
2022/12/07 05:59:24;;;;;;;7.38;5.53;;;8.60;64.20;;;;;;5074582;28;20028;-71
2022/12/07 06:01:59;;;;;;;9.38;5.65;;;8.50;64.10;;;;;;5075092;28;20032;-70
2022/12/07 06:04:31;;;;;;;8.63;5.72;;;8.50;64.10;;;;;;5056725;28;20085;-70
2022/12/07 06:06:59;;;;;;;9.88;6.22;;;8.50;64.20;;;;;;5056825;28;20029;-71
2022/12/07 06:09:34;;;;;;;8.82;6.75;;;8.40;64.10;;;;;;5074681;28;20099;-70
2022/12/07 06:14:51;;;;;;;9.20;6.55;;;8.40;64.20;;;;;;5074440;28;20529;-70
2022/12/07 06:17:19;;;;;;;9.88;6.22;;;8.40;64.30;;;;;;5074500;28;20373;-70
2022/12/07 06:19:50;;;;;;;8.55;6.38;;;8.40;64.30;;;;;;5074341;28;20024;-71
2022/12/07 06:22:21;;;;;;;7.40;5.38;;;8.40;64.30;;;;;;5074351;28;20029;-71
2022/12/07 06:24:50;;;;;;;12.13;6.38;;;8.40;64.30;;;;;;5074037;28;20025;-70
2022/12/07 06:27:18;;;;;;;11.95;6.57;;;8.40;64.40;;;;;;5074101;28;20028;-70
2022/12/07 06:29:46;;;;;;;10.85;6.55;;;8.40;64.40;;;;;;5056491;28;20464;-71
2022/12/07 06:32:12;;;;;;;8.95;5.85;;;8.40;64.50;;;;;;5074399;28;20442;-71
2022/12/07 06:34:41;;;;;;;8.57;6.35;;;8.40;64.40;;;;;;5054953;28;20171;-70
2022/12/07 06:37:07;;;;;;;10.43;7.55;;;8.40;64.50;;;;;;5056265;28;20039;-70
2022/12/07 06:39:33;;;;;;;9.75;6.80;;;8.40;64.60;;;;;;5056019;28;20029;-71
2022/12/07 06:41:59;;;;;;;10.70;7.03;;;8.40;64.50;;;;;;5074234;28;20113;-70
2022/12/07 06:44:25;;;;;;;8.57;6.70;;;8.40;64.40;;;;;;5056118;28;20052;-70
2022/12/07 06:46:54;;;;;;;12.55;8.00;;;8.40;64.30;;;;;;5073549;28;20068;-71
2022/12/07 06:49:25;;;;;;;12.52;7.93;;;8.40;64.20;;;;;;5055953;28;20032;-71
2022/12/07 06:51:53;;;;;;;10.18;7.45;;;8.40;64.20;;;;;;5056063;28;20502;-71
2022/12/07 06:54:22;;;;;;;11.18;7.88;;;8.40;64.30;;;;;;5056018;28;20024;-71
2022/12/07 06:56:53;;;;;;;13.10;7.50;;;8.40;64.20;;;;;;5073896;28;20039;-71
2022/12/07 06:59:24;;;;;;;16.48;8.98;;;8.40;64.10;;;;;;5073163;28;20470;-70
2022/12/07 07:01:53;;;;;;;19.60;10.52;;;8.40;64.00;;;;;;5073671;28;20031;-70
2022/12/07 07:04:21;;;;;;;14.63;9.13;;;8.40;64.50;;;;;;5073359;28;20032;-70
2022/12/07 07:06:47;;;;;;;11.77;8.07;;;8.40;63.80;;;;;;5073465;28;20028;-70
2022/12/07 07:09:19;;;;;;;12.93;7.70;;;8.40;63.90;;;;;;5072561;28;20032;-70
2022/12/07 07:11:47;;;;;;;12.65;8.63;;;8.40;64.00;;;;;;5055527;28;20028;-70
2022/12/07 07:14:21;;;;;;;13.82;10.02;;;8.50;64.10;;;;;;5052146;28;20025;-70
2022/12/07 07:16:52;;;;;;;12.27;8.82;;;8.50;64.00;;;;;;5073343;28;20472;-70
2022/12/07 07:19:21;;;;;;;11.77;8.10;;;8.60;64.00;;;;;;5073393;28;20032;-71
2022/12/07 07:21:49;;;;;;;11.77;8.23;;;8.50;64.40;;;;;;5055398;28;20063;-70
2022/12/07 07:24:17;;;;;;;9.68;7.30;;;8.50;63.40;;;;;;5073098;28;20097;-70
2022/12/07 07:26:46;;;;;;;10.40;7.88;;;8.50;63.50;;;;;;5054767;28;20029;-71
2022/12/07 07:29:14;;;;;;;11.55;7.72;;;8.50;63.40;;;;;;5073121;28;20036;-70
2022/12/07 07:31:43;;;;;;;12.07;8.25;;;8.50;63.50;;;;;;5073806;28;20016;-71
2022/12/07 07:34:14;;;;;;;11.43;8.07;;;8.60;63.60;;;;;;5076381;28;20024;-70
2022/12/07 07:36:40;;;;;;;10.20;7.88;;;8.60;63.50;;;;;;5069516;28;20032;-70
2022/12/07 07:39:05;;;;;;;13.18;8.85;;;8.60;63.10;;;;;;5072728;28;20348;-70
2022/12/07 07:41:34;;;;;;;16.00;8.48;;;8.60;63.10;;;;;;5054574;28;20056;-70
2022/12/07 07:44:02;;;;;;;11.98;8.05;;;8.70;63.00;;;;;;5072937;28;20024;-70
2022/12/07 07:46:32;;;;;;;9.70;6.97;;;8.70;63.10;;;;;;5073020;28;20131;-70
2022/12/07 07:49:01;;;;;;;12.07;8.63;;;8.70;63.40;;;;;;5073488;28;20035;-70
2022/12/07 07:51:32;;;;;;;12.27;8.55;;;8.70;63.30;;;;;;5072417;28;20036;-71
2022/12/07 07:53:58;;;;;;;14.05;8.95;;;8.70;63.10;;;;;;5054679;28;20115;-71
2022/12/07 07:56:28;;;;;;;11.23;8.27;;;8.70;62.80;;;;;;5072590;28;20112;-70
2022/12/07 07:58:55;;;;;;;9.80;7.25;;;8.80;62.00;;;;;;5073139;28;20028;-70
2022/12/07 08:01:24;;;;;;;10.85;8.20;;;8.80;61.60;;;;;;5072518;28;20044;-70
2022/12/07 08:03:50;;;;;;;11.40;8.48;;;8.80;61.70;;;;;;5072660;28;20039;-70
2022/12/07 08:06:19;;;;;;;10.73;7.57;;;8.70;61.00;;;;;;5072155;28;20044;-70
2022/12/07 08:08:50;;;;;;;12.18;8.52;;;8.70;61.10;;;;;;5072586;28;20434;-70
2022/12/07 08:11:19;;;;;;;12.23;8.15;;;8.70;60.90;;;;;;5072655;28;20039;-70
2022/12/07 08:13:52;;;;;;;18.08;9.60;;;8.70;61.10;;;;;;5072549;28;20032;-70
2022/12/07 08:16:21;;;;;;;17.85;11.55;;;8.70;61.30;;;;;;5072623;28;20032;-70
2022/12/07 08:18:56;;;;;;;15.73;10.68;;;8.70;61.50;;;;;;5054823;28;20028;-70
2022/12/07 08:21:26;;;;;;;12.20;8.93;;;8.70;61.40;;;;;;5074561;28;20159;-70
2022/12/07 08:23:58;;;;;;;12.65;8.25;;;8.70;61.40;;;;;;5073174;28;20020;-70
2022/12/07 08:26:24;;;;;;;11.52;7.78;;;8.80;61.70;;;;;;5076807;28;20093;-70
2022/12/07 08:28:50;;;;;;;12.98;8.70;;;8.80;61.70;;;;;;5076411;28;20464;-71
2022/12/07 08:31:20;;;;;;;13.02;8.90;;;8.90;61.80;;;;;;5076739;28;20103;-71
2022/12/07 08:33:49;;;;;;;10.55;7.13;;;8.90;61.30;;;;;;5076219;28;20028;-71
2022/12/07 08:36:21;;;;;;;11.73;8.48;;;9.00;61.30;;;;;;5076422;28;20033;-71
2022/12/07 08:38:51;;;;;;;23.15;12.95;;;9.00;62.20;;;;;;5058757;28;20029;-71
2022/12/07 08:41:20;;;;;;;26.50;14.10;;;9.10;61.30;;;;;;5076365;28;20074;-70
2022/12/07 08:43:49;;;;;;;21.65;12.45;;;9.10;60.80;;;;;;5058594;28;20460;-70
2022/12/07 08:46:22;;;;;;;20.75;12.77;;;9.10;60.70;;;;;;5058385;28;20032;-70
2022/12/07 08:48:58;;;;;;;17.17;10.88;;;9.10;60.50;;;;;;5076518;28;20025;-71
2022/12/07 08:51:24;;;;;;;13.35;9.40;;;9.10;60.60;;;;;;5062231;28;20033;-71
2022/12/07 08:53:51;;;;;;;12.88;9.35;;;9.10;60.20;;;;;;5058113;28;20032;-70
2022/12/07 08:56:21;;;;;;;14.90;9.00;;;9.00;60.20;;;;;;5075290;28;20466;-71
2022/12/07 08:58:48;;;;;;;12.30;9.00;;;9.00;60.40;;;;;;5057704;28;20032;-70
2022/12/07 09:01:14;;;;;;;12.90;9.07;;;9.00;60.30;;;;;;5075270;28;20059;-70
2022/12/07 09:03:40;;;;;;;16.88;10.65;;;9.00;60.50;;;;;;5057140;28;20025;-72
2022/12/07 09:06:07;;;;;;;15.00;10.30;;;8.90;60.50;;;;;;5065266;28;20082;-71
2022/12/07 09:08:46;;;;;;;12.77;9.10;;;8.80;60.60;;;;;;5057541;28;20039;-71
2022/12/07 09:11:17;;;;;;;13.52;9.32;;;8.80;60.70;;;;;;5057699;28;20460;-70
2022/12/07 09:13:45;;;;;;;13.27;9.30;;;8.80;61.00;;;;;;5071416;28;20032;-71
2022/12/07 09:16:16;;;;;;;11.65;8.35;;;8.80;61.10;;;;;;5062765;28;20051;-71
2022/12/07 09:18:44;;;;;;;13.15;9.00;;;8.80;61.30;;;;;;5057700;28;20475;-71
2022/12/07 09:21:13;;;;;;;14.27;9.88;;;8.80;61.30;;;;;;5057545;28;20484;-70
2022/12/07 09:23:45;;;;;;;13.95;9.00;;;8.80;60.90;;;;;;5074263;28;20033;-71
2022/12/07 09:26:13;;;;;;;11.32;8.23;;;8.80;60.70;;;;;;5053543;28;20043;-70
2022/12/07 09:28:47;;;;;;;11.43;8.52;;;8.80;60.60;;;;;;5075113;28;20029;-70
2022/12/07 09:31:13;;;;;;;;;;;8.80;60.70;;;;;;5075641;28;20024;-71
2022/12/07 09:33:41;;;;;;;12.35;9.23;;;8.90;61.20;;;;;;5073280;28;19922;-71
2022/12/07 09:36:09;;;;;;;17.73;9.75;;;8.90;60.40;;;;;;5074955;28;20498;-71
2022/12/07 09:38:38;;;;;;;14.23;9.23;;;8.80;60.10;;;;;;5057106;28;20093;-70
2022/12/07 09:41:11;;;;;;;12.85;8.48;;;8.90;60.00;;;;;;5056684;28;20033;-71
2022/12/07 09:43:40;;;;;;;13.03;9.10;;;8.90;59.80;;;;;;5057050;28;20088;-70
2022/12/07 09:46:17;;;;;;;12.02;8.35;;;8.80;59.80;;;;;;5056585;28;20036;-70
2022/12/07 09:48:47;;;;;;;12.13;8.15;;;8.80;59.90;;;;;;5073150;28;20472;-70
2022/12/07 09:51:21;;;;;;;13.30;9.18;;;8.90;60.20;;;;;;5075079;28;20103;-71
2022/12/07 09:53:51;;;;;;;12.05;8.80;;;8.90;60.20;;;;;;5075227;28;20036;-71
2022/12/07 09:56:21;;;;;;;9.77;7.68;;;8.90;60.30;;;;;;5057172;28;20460;-71
2022/12/07 09:58:48;;;;;;;11.13;8.63;;;8.90;60.50;;;;;;5058076;28;20468;-71
2022/12/07 10:01:17;;;;;;;11.10;8.52;;;9.00;60.50;;;;;;5056467;28;20569;-70
2022/12/07 10:03:58;;;;;;;11.32;8.90;;;9.00;60.70;;;;;;5074636;28;20024;-71
2022/12/07 10:06:27;;;;;;;11.93;8.90;;;9.10;60.60;;;;;;5073441;28;20039;-70
2022/12/07 10:08:56;;;;;;;12.43;8.75;;;9.20;60.00;;;;;;5073652;28;20104;-70
2022/12/07 10:11:24;;;;;;;14.20;8.95;;;9.30;59.90;;;;;;5074576;28;20107;-70
2022/12/07 10:13:53;;;;;;;14.02;9.45;;;9.30;59.80;;;;;;5074557;28;20515;-70
2022/12/07 10:16:40;;;;;;;13.73;9.52;;;9.40;59.70;;;;;;5075122;28;20496;-71
2022/12/07 10:19:21;;;;;;;12.00;8.45;;;9.50;59.50;;;;;;5074713;28;20031;-71
2022/12/07 10:22:14;;;;;;;11.15;7.97;;;9.60;58.80;;;;;;5056600;28;20021;-71
2022/12/07 10:24:47;;;;;;;10.38;7.53;;;9.60;57.90;;;;;;5074702;28;20028;-70
2022/12/07 10:27:20;;;;;;;13.77;8.25;;;9.60;57.40;;;;;;5074286;28;20055;-70
2022/12/07 10:29:57;;;;;;;10.90;8.17;;;9.50;57.30;;;;;;5074287;28;20380;-71
2022/12/07 10:32:36;;;;;;;10.32;7.47;;;9.50;56.80;;;;;;5056671;28;20121;-71
2022/12/07 10:35:29;;;;;;;11.00;8.55;;;9.40;57.10;;;;;;5073239;28;20035;-71
2022/12/07 10:37:59;;;;;;;13.60;8.10;;;9.30;57.20;;;;;;5056530;28;20086;-71
2022/12/07 10:40:36;;;;;;;11.13;8.27;;;9.30;57.30;;;;;;5056752;28;20044;-71
2022/12/07 10:43:15;;;;;;;13.20;8.15;;;9.30;57.00;;;;;;5073930;28;20499;-71
2022/12/07 10:46:10;;;;;;;11.35;8.65;;;9.30;56.90;;;;;;5056163;28;20036;-70
2022/12/07 10:48:58;;;;;;;;;;;9.20;57.00;;;;;;5022554;28;20037;-71
2022/12/07 10:51:56;;;;;;;10.77;8.10;;;9.20;58.00;;;;;;5051696;28;19908;-71
2022/12/07 10:54:24;;;;;;;13.10;8.90;;;9.20;57.50;;;;;;5062263;28;20041;-71
2022/12/07 10:56:57;;;;;;;14.75;9.27;;;9.30;57.90;;;;;;5073828;28;20097;-71
2022/12/07 10:59:58;;;;;;;18.35;10.40;;;9.30;58.10;;;;;;5073814;28;20067;-70
2022/12/07 11:02:44;;;;;;;11.23;8.95;;;9.30;57.80;;;;;;5036734;28;20048;-71
2022/12/07 11:05:28;;;;;;;14.77;9.77;;;9.30;57.10;;;;;;5072919;28;20024;-70
2022/12/07 11:08:11;;;;;;;14.10;9.07;;;9.40;57.10;;;;;;5073352;28;20468;-71
2022/12/07 11:11:14;;;;;;;13.73;9.18;;;9.40;57.30;;;;;;5055698;28;20051;-71
2022/12/07 11:13:48;;;;;;;13.77;9.50;;;9.40;57.50;;;;;;5055729;28;20024;-70
2022/12/07 11:16:17;;;;;;;;;;;9.50;57.30;;;;;;5074147;28;20028;-70
2022/12/07 11:19:14;;;;;;;15.60;9.40;;;9.60;58.20;;;;;;5073611;28;19950;-70
2022/12/07 11:21:55;;;;;;;12.93;8.13;;;9.70;57.10;;;;;;5055647;28;20029;-71
2022/12/07 11:24:46;;;;;;;11.02;8.20;;;9.80;56.80;;;;;;5073564;28;20021;-70
2022/12/07 11:27:38;;;;;;;12.25;8.35;;;9.90;55.90;;;;;;5073438;28;20036;-70
2022/12/07 11:30:39;;;;;;;9.43;7.25;;;10.00;55.50;;;;;;5054690;28;20075;-70
2022/12/07 11:33:16;;;;;;;11.13;7.80;;;10.10;55.30;;;;;;4972052;28;20034;-70
2022/12/07 11:35:51;;;;;;;15.18;8.30;;;10.20;54.60;;;;;;4971787;28;20043;-70
2022/12/07 11:38:23;;;;;;;10.40;7.47;;;10.20;54.50;;;;;;4972314;28;20035;-71
2022/12/07 11:40:53;;;;;;;13.65;7.90;;;10.20;54.20;;;;;;4955723;28;20491;-71
2022/12/07 11:43:28;;;;;;;11.70;7.03;;;10.20;54.40;;;;;;4971953;28;20102;-70
2022/12/07 11:46:04;;;;;;;9.32;6.82;;;10.20;54.00;;;;;;4955928;28;20502;-71
2022/12/07 11:48:41;;;;;;;10.43;7.65;;;10.10;54.60;;;;;;4971959;28;20039;-71
2022/12/07 11:51:11;;;;;;;14.60;10.50;;;10.10;54.80;;;;;;4965994;28;20034;-71
2022/12/07 11:53:42;;;;;;;19.00;11.82;;;10.10;55.00;;;;;;4955594;28;20489;-71
2022/12/07 11:56:19;;;;;;;17.27;10.90;;;10.20;55.10;;;;;;4955275;28;20082;-71
2022/12/07 11:58:48;;;;;;;17.52;8.52;;;10.20;55.20;;;;;;4971850;28;20101;-71
2022/12/07 12:01:17;;;;;;;10.02;7.72;;;10.20;54.70;;;;;;4971725;28;20454;-71
2022/12/07 12:04:27;;;;;;;10.05;7.50;;;10.30;54.40;;;;;;4952673;28;20113;-71
2022/12/07 12:06:53;;;;;;;9.70;6.72;;;10.40;54.10;;;;;;4947493;28;20055;-71
2022/12/07 12:09:45;;;;;;;9.02;6.63;;;10.40;53.50;;;;;;4990523;28;20034;-71
2022/12/07 12:12:39;;;;;;;9.48;6.75;;;10.40;52.80;;;;;;5010628;28;20029;-70
2022/12/07 12:15:27;;;;;;;9.70;6.70;;;10.40;52.80;;;;;;5010328;28;20062;-71
2022/12/07 12:18:13;;;;;;;8.52;6.70;;;10.40;52.80;;;;;;5010887;28;20549;-71
2022/12/07 12:20:49;;;;;;;11.93;6.88;;;10.50;53.00;;;;;;5010772;28;20037;-71
2022/12/07 12:23:22;;;;;;;8.93;7.00;;;10.50;52.80;;;;;;5010786;28;20608;-71
2022/12/07 12:25:54;;;;;;;15.30;7.18;;;10.50;52.80;;;;;;5010697;28;20029;-71
2022/12/07 12:28:50;;;;;;;10.48;7.30;;;10.60;52.50;;;;;;5010754;28;20034;-71
2022/12/07 12:31:32;;;;;;;12.38;6.72;;;10.60;52.70;;;;;;4971189;28;20044;-70
2022/12/07 12:34:02;;;;;;;13.35;8.50;;;10.70;52.90;;;;;;5010187;28;20037;-71
2022/12/07 12:36:34;;;;;;;18.42;6.75;;;10.70;53.00;;;;;;5010612;28;20121;-71
2022/12/07 12:39:18;;;;;;;12.52;6.30;;;10.80;52.20;;;;;;5010962;28;20034;-70
2022/12/07 12:44:17;;;;;;;8.45;5.85;;;10.90;51.10;;;;;;5072240;28;20490;-71
2022/12/07 12:46:50;;;;;;;10.18;5.65;;;10.90;50.50;;;;;;5072282;28;20376;-71
2022/12/07 12:49:19;;;;;;;7.10;5.82;;;10.90;50.50;;;;;;5054356;28;20376;-71
2022/12/07 12:52:03;;;;;;;9.15;6.32;;;10.90;50.70;;;;;;5069875;28;20047;-70
2022/12/07 12:54:32;;;;;;;12.43;6.83;;;10.90;50.50;;;;;;5071820;28;20483;-72
2022/12/07 12:57:13;;;;;;;10.95;7.10;;;10.90;50.70;;;;;;5072105;28;20456;-70
2022/12/07 12:59:51;;;;;;;8.13;5.93;;;10.90;50.80;;;;;;5071919;28;20055;-70
2022/12/07 13:02:36;;;;;;;10.07;6.53;;;10.90;50.80;;;;;;5068461;28;20107;-73
2022/12/07 13:05:09;;;;;;;11.35;7.07;;;10.90;50.50;;;;;;5046929;28;20048;-70
2022/12/07 13:07:46;;;;;;;10.57;6.40;;;11.00;50.30;;;;;;5055720;28;20032;-74
2022/12/07 13:10:28;;;;;;;11.27;6.78;;;10.90;49.80;;;;;;5056473;28;20068;-74
2022/12/07 13:13:13;;;;;;;11.55;6.88;;;10.90;49.60;;;;;;5057492;28;20024;-74
2022/12/07 13:16:08;;;;;;;8.85;5.85;;;10.90;50.00;;;;;;5057719;28;20376;-74
2022/12/07 13:18:34;;;;;;;10.57;7.20;;;10.80;50.20;;;;;;5057555;28;20025;-74
2022/12/07 13:21:06;;;;;;;8.50;6.40;;;10.90;50.80;;;;;;5075358;28;20522;-75
2022/12/07 13:23:55;;;;;;;8.93;6.68;;;10.90;50.70;;;;;;5075257;28;20030;-74
2022/12/07 13:26:30;;;;;;;8.80;6.20;;;10.80;49.30;;;;;;5075488;28;20131;-74
2022/12/07 13:29:16;;;;;;;8.82;6.07;;;10.70;49.20;;;;;;5057890;28;20032;-73